sensor_id;sensor_type;location;lat;lon;timestamp;P1;durP1;ratioP1;P2;durP2;ratioP2
9102;SDS011;4587;51.434;6.788;2023-11-21T00:01:53;10.40;;;6.40;;
9102;SDS011;4587;51.434;6.788;2023-11-21T00:04:19;10.73;;;6.67;;
9102;SDS011;4587;51.434;6.788;2023-11-21T00:06:45;13.70;;;6.87;;
9102;SDS011;4587;51.434;6.788;2023-11-21T00:09:12;10.50;;;6.50;;
9102;SDS011;4587;51.434;6.788;2023-11-21T00:11:40;14.67;;;6.30;;
9102;SDS011;4587;51.434;6.788;2023-11-21T00:14:06;11.07;;;6.97;;
9102;SDS011;4587;51.434;6.788;2023-11-21T00:16:33;12.20;;;8.67;;
9102;SDS011;4587;51.434;6.788;2023-11-21T00:18:59;13.07;;;7.17;;
9102;SDS011;4587;51.434;6.788;2023-11-21T00:21:24;10.80;;;6.83;;
9102;SDS011;4587;51.434;6.788;2023-11-21T00:23:50;13.00;;;7.30;;
9102;SDS011;4587;51.434;6.788;2023-11-21T00:26:15;10.03;;;6.57;;
9102;SDS011;4587;51.434;6.788;2023-11-21T00:28:41;10.97;;;6.93;;
9102;SDS011;4587;51.434;6.788;2023-11-21T00:31:06;15.53;;;7.37;;
9102;SDS011;4587;51.434;6.788;2023-11-21T00:33:32;15.20;;;8.00;;
9102;SDS011;4587;51.434;6.788;2023-11-21T00:35:57;14.03;;;9.77;;
9102;SDS011;4587;51.434;6.788;2023-11-21T00:38:23;20.87;;;11.60;;
9102;SDS011;4587;51.434;6.788;2023-11-21T00:40:49;19.50;;;11.97;;
9102;SDS011;4587;51.434;6.788;2023-11-21T00:43:14;18.60;;;12.77;;
9102;SDS011;4587;51.434;6.788;2023-11-21T00:45:40;16.23;;;11.93;;
9102;SDS011;4587;51.434;6.788;2023-11-21T00:48:05;22.53;;;13.57;;
9102;SDS011;4587;51.434;6.788;2023-11-21T00:50:33;18.40;;;10.90;;
9102;SDS011;4587;51.434;6.788;2023-11-21T00:52:58;18.20;;;11.13;;
9102;SDS011;4587;51.434;6.788;2023-11-21T00:55:24;18.63;;;9.77;;
9102;SDS011;4587;51.434;6.788;2023-11-21T00:57:50;16.30;;;9.50;;
9102;SDS011;4587;51.434;6.788;2023-11-21T01:00:15;14.93;;;8.60;;
9102;SDS011;4587;51.434;6.788;2023-11-21T01:02:44;16.83;;;9.33;;
9102;SDS011;4587;51.434;6.788;2023-11-21T01:05:10;16.33;;;9.03;;
9102;SDS011;4587;51.434;6.788;2023-11-21T01:07:36;12.87;;;8.77;;
9102;SDS011;4587;51.434;6.788;2023-11-21T01:10:02;14.10;;;8.70;;
9102;SDS011;4587;51.434;6.788;2023-11-21T01:12:30;16.53;;;8.63;;
9102;SDS011;4587;51.434;6.788;2023-11-21T01:14:56;14.90;;;8.60;;
9102;SDS011;4587;51.434;6.788;2023-11-21T01:17:25;13.17;;;7.90;;
9102;SDS011;4587;51.434;6.788;2023-11-21T01:19:50;19.77;;;8.70;;
9102;SDS011;4587;51.434;6.788;2023-11-21T01:22:16;14.03;;;8.83;;
9102;SDS011;4587;51.434;6.788;2023-11-21T01:24:42;13.30;;;8.30;;
9102;SDS011;4587;51.434;6.788;2023-11-21T01:27:08;15.73;;;8.20;;
9102;SDS011;4587;51.434;6.788;2023-11-21T01:29:34;14.87;;;8.87;;
9102;SDS011;4587;51.434;6.788;2023-11-21T01:32:00;13.37;;;8.70;;
9102;SDS011;4587;51.434;6.788;2023-11-21T01:34:27;19.37;;;9.67;;
9102;SDS011;4587;51.434;6.788;2023-11-21T01:36:53;15.43;;;9.33;;
9102;SDS011;4587;51.434;6.788;2023-11-21T01:39:18;17.20;;;9.43;;
9102;SDS011;4587;51.434;6.788;2023-11-21T01:41:48;14.73;;;9.27;;
9102;SDS011;4587;51.434;6.788;2023-11-21T01:44:17;13.73;;;9.33;;
9102;SDS011;4587;51.434;6.788;2023-11-21T01:46:44;14.27;;;8.27;;
9102;SDS011;4587;51.434;6.788;2023-11-21T01:49:11;16.73;;;9.63;;
9102;SDS011;4587;51.434;6.788;2023-11-21T01:51:38;16.50;;;9.20;;
9102;SDS011;4587;51.434;6.788;2023-11-21T01:54:05;13.87;;;8.87;;
9102;SDS011;4587;51.434;6.788;2023-11-21T01:56:31;16.10;;;8.77;;
9102;SDS011;4587;51.434;6.788;2023-11-21T01:58:57;17.23;;;9.27;;
9102;SDS011;4587;51.434;6.788;2023-11-21T02:01:23;17.27;;;9.47;;
9102;SDS011;4587;51.434;6.788;2023-11-21T02:03:50;14.97;;;9.03;;
9102;SDS011;4587;51.434;6.788;2023-11-21T02:06:16;15.23;;;8.90;;
9102;SDS011;4587;51.434;6.788;2023-11-21T02:08:42;18.80;;;9.23;;
9102;SDS011;4587;51.434;6.788;2023-11-21T02:11:09;16.73;;;9.30;;
9102;SDS011;4587;51.434;6.788;2023-11-21T02:13:37;15.10;;;9.13;;
9102;SDS011;4587;51.434;6.788;2023-11-21T02:16:03;14.03;;;8.97;;
9102;SDS011;4587;51.434;6.788;2023-11-21T02:18:30;16.50;;;9.03;;
9102;SDS011;4587;51.434;6.788;2023-11-21T02:20:56;16.77;;;8.70;;
9102;SDS011;4587;51.434;6.788;2023-11-21T02:23:22;16.23;;;8.90;;
9102;SDS011;4587;51.434;6.788;2023-11-21T02:25:48;12.70;;;8.47;;
9102;SDS011;4587;51.434;6.788;2023-11-21T02:28:13;14.93;;;9.07;;
9102;SDS011;4587;51.434;6.788;2023-11-21T02:30:41;14.90;;;9.00;;
9102;SDS011;4587;51.434;6.788;2023-11-21T02:33:07;14.67;;;8.73;;
9102;SDS011;4587;51.434;6.788;2023-11-21T02:35:33;12.37;;;9.33;;
9102;SDS011;4587;51.434;6.788;2023-11-21T02:37:58;14.47;;;8.93;;
9102;SDS011;4587;51.434;6.788;2023-11-21T02:40:24;13.27;;;9.13;;
9102;SDS011;4587;51.434;6.788;2023-11-21T02:42:51;15.80;;;9.73;;
9102;SDS011;4587;51.434;6.788;2023-11-21T02:45:18;14.57;;;9.90;;
9102;SDS011;4587;51.434;6.788;2023-11-21T02:47:45;16.83;;;9.03;;
9102;SDS011;4587;51.434;6.788;2023-11-21T02:50:12;15.13;;;9.03;;
9102;SDS011;4587;51.434;6.788;2023-11-21T02:52:38;15.77;;;10.03;;
9102;SDS011;4587;51.434;6.788;2023-11-21T02:55:05;15.57;;;10.20;;
9102;SDS011;4587;51.434;6.788;2023-11-21T02:57:32;14.80;;;9.60;;
9102;SDS011;4587;51.434;6.788;2023-11-21T02:59:58;13.90;;;9.07;;
9102;SDS011;4587;51.434;6.788;2023-11-21T03:02:24;15.80;;;10.23;;
9102;SDS011;4587;51.434;6.788;2023-11-21T03:04:50;17.00;;;10.07;;
9102;SDS011;4587;51.434;6.788;2023-11-21T03:07:16;15.80;;;10.00;;
9102;SDS011;4587;51.434;6.788;2023-11-21T03:09:44;14.67;;;10.00;;
9102;SDS011;4587;51.434;6.788;2023-11-21T03:12:10;13.57;;;9.17;;
9102;SDS011;4587;51.434;6.788;2023-11-21T03:14:37;16.37;;;9.63;;
9102;SDS011;4587;51.434;6.788;2023-11-21T03:17:03;16.53;;;9.30;;
9102;SDS011;4587;51.434;6.788;2023-11-21T03:19:29;12.40;;;9.03;;
9102;SDS011;4587;51.434;6.788;2023-11-21T03:21:55;12.47;;;9.43;;
9102;SDS011;4587;51.434;6.788;2023-11-21T03:24:21;16.13;;;9.60;;
9102;SDS011;4587;51.434;6.788;2023-11-21T03:26:47;15.03;;;9.00;;
9102;SDS011;4587;51.434;6.788;2023-11-21T03:29:13;14.03;;;8.90;;
9102;SDS011;4587;51.434;6.788;2023-11-21T03:31:39;13.70;;;9.67;;
9102;SDS011;4587;51.434;6.788;2023-11-21T03:34:05;14.73;;;9.13;;
9102;SDS011;4587;51.434;6.788;2023-11-21T03:36:31;15.07;;;9.77;;
9102;SDS011;4587;51.434;6.788;2023-11-21T03:38:57;15.13;;;9.03;;
9102;SDS011;4587;51.434;6.788;2023-11-21T03:41:22;17.23;;;9.27;;
9102;SDS011;4587;51.434;6.788;2023-11-21T03:43:48;12.07;;;8.57;;
9102;SDS011;4587;51.434;6.788;2023-11-21T03:46:13;16.77;;;9.33;;
9102;SDS011;4587;51.434;6.788;2023-11-21T03:48:39;14.60;;;9.43;;
9102;SDS011;4587;51.434;6.788;2023-11-21T03:51:05;18.03;;;10.93;;
9102;SDS011;4587;51.434;6.788;2023-11-21T03:53:31;17.70;;;10.50;;
9102;SDS011;4587;51.434;6.788;2023-11-21T03:55:57;16.83;;;10.10;;
9102;SDS011;4587;51.434;6.788;2023-11-21T03:58:22;16.37;;;10.73;;
9102;SDS011;4587;51.434;6.788;2023-11-21T04:00:48;18.60;;;10.70;;
9102;SDS011;4587;51.434;6.788;2023-11-21T04:03:16;15.63;;;10.53;;
9102;SDS011;4587;51.434;6.788;2023-11-21T04:05:42;14.93;;;10.77;;
9102;SDS011;4587;51.434;6.788;2023-11-21T04:08:08;17.17;;;10.53;;
9102;SDS011;4587;51.434;6.788;2023-11-21T04:10:33;19.67;;;11.37;;
9102;SDS011;4587;51.434;6.788;2023-11-21T04:12:59;23.40;;;11.23;;
9102;SDS011;4587;51.434;6.788;2023-11-21T04:15:25;17.30;;;10.50;;
9102;SDS011;4587;51.434;6.788;2023-11-21T04:17:51;16.83;;;10.40;;
9102;SDS011;4587;51.434;6.788;2023-11-21T04:20:16;13.93;;;9.80;;
9102;SDS011;4587;51.434;6.788;2023-11-21T04:22:43;15.17;;;9.87;;
9102;SDS011;4587;51.434;6.788;2023-11-21T04:25:09;21.03;;;11.00;;
9102;SDS011;4587;51.434;6.788;2023-11-21T04:27:39;15.93;;;11.20;;
9102;SDS011;4587;51.434;6.788;2023-11-21T04:30:05;18.67;;;11.20;;
9102;SDS011;4587;51.434;6.788;2023-11-21T04:32:31;15.47;;;10.80;;
9102;SDS011;4587;51.434;6.788;2023-11-21T04:34:57;14.63;;;10.67;;
9102;SDS011;4587;51.434;6.788;2023-11-21T04:37:22;21.87;;;11.40;;
9102;SDS011;4587;51.434;6.788;2023-11-21T04:39:49;17.97;;;11.20;;
9102;SDS011;4587;51.434;6.788;2023-11-21T04:42:14;20.10;;;11.10;;
9102;SDS011;4587;51.434;6.788;2023-11-21T04:44:40;18.47;;;10.70;;
9102;SDS011;4587;51.434;6.788;2023-11-21T04:47:06;17.00;;;11.10;;
9102;SDS011;4587;51.434;6.788;2023-11-21T04:49:32;15.53;;;10.60;;
9102;SDS011;4587;51.434;6.788;2023-11-21T04:51:58;17.50;;;12.03;;
9102;SDS011;4587;51.434;6.788;2023-11-21T04:54:23;15.60;;;10.07;;
9102;SDS011;4587;51.434;6.788;2023-11-21T04:56:49;17.10;;;11.50;;
9102;SDS011;4587;51.434;6.788;2023-11-21T04:59:15;16.23;;;11.03;;
9102;SDS011;4587;51.434;6.788;2023-11-21T05:01:40;17.90;;;11.07;;
9102;SDS011;4587;51.434;6.788;2023-11-21T05:04:06;18.43;;;11.80;;
9102;SDS011;4587;51.434;6.788;2023-11-21T05:06:34;18.03;;;11.93;;
9102;SDS011;4587;51.434;6.788;2023-11-21T05:09:00;18.00;;;12.23;;
9102;SDS011;4587;51.434;6.788;2023-11-21T05:11:26;17.60;;;10.87;;
9102;SDS011;4587;51.434;6.788;2023-11-21T05:13:52;17.17;;;11.50;;
9102;SDS011;4587;51.434;6.788;2023-11-21T05:16:21;20.63;;;12.40;;
9102;SDS011;4587;51.434;6.788;2023-11-21T05:18:47;18.70;;;11.40;;
9102;SDS011;4587;51.434;6.788;2023-11-21T05:21:13;16.47;;;11.63;;
9102;SDS011;4587;51.434;6.788;2023-11-21T05:23:38;17.00;;;10.87;;
9102;SDS011;4587;51.434;6.788;2023-11-21T05:26:05;16.80;;;11.50;;
9102;SDS011;4587;51.434;6.788;2023-11-21T05:28:30;18.73;;;12.27;;
9102;SDS011;4587;51.434;6.788;2023-11-21T05:30:56;20.80;;;11.60;;
9102;SDS011;4587;51.434;6.788;2023-11-21T05:33:21;19.33;;;12.67;;
9102;SDS011;4587;51.434;6.788;2023-11-21T05:35:46;17.43;;;11.50;;
9102;SDS011;4587;51.434;6.788;2023-11-21T05:38:14;18.70;;;12.17;;
9102;SDS011;4587;51.434;6.788;2023-11-21T05:40:39;18.37;;;12.80;;
9102;SDS011;4587;51.434;6.788;2023-11-21T05:43:05;19.03;;;12.13;;
9102;SDS011;4587;51.434;6.788;2023-11-21T05:45:31;20.37;;;12.90;;
9102;SDS011;4587;51.434;6.788;2023-11-21T05:47:57;20.40;;;13.13;;
9102;SDS011;4587;51.434;6.788;2023-11-21T05:50:23;21.67;;;13.27;;
9102;SDS011;4587;51.434;6.788;2023-11-21T05:52:49;20.30;;;13.40;;
9102;SDS011;4587;51.434;6.788;2023-11-21T05:55:14;20.23;;;13.60;;
9102;SDS011;4587;51.434;6.788;2023-11-21T05:57:41;20.90;;;13.77;;
9102;SDS011;4587;51.434;6.788;2023-11-21T06:00:14;20.37;;;13.40;;
9102;SDS011;4587;51.434;6.788;2023-11-21T06:02:45;21.13;;;13.73;;
9102;SDS011;4587;51.434;6.788;2023-11-21T06:05:20;20.13;;;14.07;;
9102;SDS011;4587;51.434;6.788;2023-11-21T06:07:48;26.70;;;16.03;;
9102;SDS011;4587;51.434;6.788;2023-11-21T06:10:14;26.20;;;15.57;;
9102;SDS011;4587;51.434;6.788;2023-11-21T06:12:42;27.40;;;17.90;;
9102;SDS011;4587;51.434;6.788;2023-11-21T06:15:08;35.60;;;19.93;;
9102;SDS011;4587;51.434;6.788;2023-11-21T06:17:38;37.40;;;24.63;;
9102;SDS011;4587;51.434;6.788;2023-11-21T06:20:08;54.87;;;30.13;;
9102;SDS011;4587;51.434;6.788;2023-11-21T06:22:39;70.60;;;37.10;;
9102;SDS011;4587;51.434;6.788;2023-11-21T06:25:06;109.07;;;49.43;;
9102;SDS011;4587;51.434;6.788;2023-11-21T06:27:33;109.60;;;51.97;;
9102;SDS011;4587;51.434;6.788;2023-11-21T06:29:59;131.57;;;58.97;;
9102;SDS011;4587;51.434;6.788;2023-11-21T06:32:25;146.30;;;63.23;;
9102;SDS011;4587;51.434;6.788;2023-11-21T06:34:51;96.33;;;45.53;;
9102;SDS011;4587;51.434;6.788;2023-11-21T06:37:19;78.97;;;37.43;;
9102;SDS011;4587;51.434;6.788;2023-11-21T06:39:48;54.30;;;30.10;;
9102;SDS011;4587;51.434;6.788;2023-11-21T06:42:14;49.50;;;28.43;;
9102;SDS011;4587;51.434;6.788;2023-11-21T06:44:40;47.33;;;27.20;;
9102;SDS011;4587;51.434;6.788;2023-11-21T06:47:06;43.30;;;27.07;;
9102;SDS011;4587;51.434;6.788;2023-11-21T06:49:32;42.40;;;26.17;;
9102;SDS011;4587;51.434;6.788;2023-11-21T06:51:58;41.40;;;26.03;;
9102;SDS011;4587;51.434;6.788;2023-11-21T06:54:23;37.07;;;25.03;;
9102;SDS011;4587;51.434;6.788;2023-11-21T06:56:49;38.80;;;25.43;;
9102;SDS011;4587;51.434;6.788;2023-11-21T06:59:15;42.47;;;24.93;;
9102;SDS011;4587;51.434;6.788;2023-11-21T07:01:41;39.93;;;25.53;;
9102;SDS011;4587;51.434;6.788;2023-11-21T07:04:06;40.93;;;24.53;;
9102;SDS011;4587;51.434;6.788;2023-11-21T07:06:33;40.60;;;24.97;;
9102;SDS011;4587;51.434;6.788;2023-11-21T07:08:59;41.87;;;25.07;;
9102;SDS011;4587;51.434;6.788;2023-11-21T07:11:26;40.83;;;25.13;;
9102;SDS011;4587;51.434;6.788;2023-11-21T07:13:52;41.70;;;26.33;;
9102;SDS011;4587;51.434;6.788;2023-11-21T07:16:18;45.80;;;28.07;;
9102;SDS011;4587;51.434;6.788;2023-11-21T07:18:44;48.27;;;28.70;;
9102;SDS011;4587;51.434;6.788;2023-11-21T07:21:10;43.60;;;27.73;;
9102;SDS011;4587;51.434;6.788;2023-11-21T07:23:37;51.90;;;29.13;;
9102;SDS011;4587;51.434;6.788;2023-11-21T07:26:03;47.17;;;28.47;;
9102;SDS011;4587;51.434;6.788;2023-11-21T07:28:33;45.90;;;27.07;;
9102;SDS011;4587;51.434;6.788;2023-11-21T07:30:59;43.13;;;26.53;;
9102;SDS011;4587;51.434;6.788;2023-11-21T07:33:25;45.77;;;27.70;;
9102;SDS011;4587;51.434;6.788;2023-11-21T07:35:50;39.77;;;26.03;;
9102;SDS011;4587;51.434;6.788;2023-11-21T07:38:16;44.33;;;28.33;;
9102;SDS011;4587;51.434;6.788;2023-11-21T07:40:42;45.27;;;27.83;;
9102;SDS011;4587;51.434;6.788;2023-11-21T07:43:08;44.70;;;26.83;;
9102;SDS011;4587;51.434;6.788;2023-11-21T07:45:35;49.97;;;27.97;;
9102;SDS011;4587;51.434;6.788;2023-11-21T07:48:01;59.30;;;32.50;;
9102;SDS011;4587;51.434;6.788;2023-11-21T07:50:28;56.70;;;31.40;;
9102;SDS011;4587;51.434;6.788;2023-11-21T07:52:54;61.23;;;32.87;;
9102;SDS011;4587;51.434;6.788;2023-11-21T07:55:20;58.10;;;31.83;;
9102;SDS011;4587;51.434;6.788;2023-11-21T07:57:46;61.10;;;30.50;;
9102;SDS011;4587;51.434;6.788;2023-11-21T08:00:12;52.80;;;29.73;;
9102;SDS011;4587;51.434;6.788;2023-11-21T08:02:39;51.03;;;29.23;;
9102;SDS011;4587;51.434;6.788;2023-11-21T08:05:07;56.27;;;30.87;;
9102;SDS011;4587;51.434;6.788;2023-11-21T08:07:33;50.80;;;29.43;;
9102;SDS011;4587;51.434;6.788;2023-11-21T08:09:59;60.03;;;30.90;;
9102;SDS011;4587;51.434;6.788;2023-11-21T08:12:24;54.70;;;29.03;;
9102;SDS011;4587;51.434;6.788;2023-11-21T08:14:52;42.23;;;27.77;;
9102;SDS011;4587;51.434;6.788;2023-11-21T08:17:18;51.37;;;29.33;;
9102;SDS011;4587;51.434;6.788;2023-11-21T08:19:45;46.13;;;26.73;;
9102;SDS011;4587;51.434;6.788;2023-11-21T08:22:14;45.33;;;28.27;;
9102;SDS011;4587;51.434;6.788;2023-11-21T08:24:43;43.70;;;26.70;;
9102;SDS011;4587;51.434;6.788;2023-11-21T08:27:09;43.83;;;27.13;;
9102;SDS011;4587;51.434;6.788;2023-11-21T08:29:34;47.17;;;27.67;;
9102;SDS011;4587;51.434;6.788;2023-11-21T08:32:01;41.10;;;25.57;;
9102;SDS011;4587;51.434;6.788;2023-11-21T08:34:27;44.30;;;27.37;;
9102;SDS011;4587;51.434;6.788;2023-11-21T08:36:53;45.03;;;26.60;;
9102;SDS011;4587;51.434;6.788;2023-11-21T08:39:20;41.83;;;26.80;;
9102;SDS011;4587;51.434;6.788;2023-11-21T08:41:49;46.80;;;27.80;;
9102;SDS011;4587;51.434;6.788;2023-11-21T08:44:15;41.03;;;27.30;;
9102;SDS011;4587;51.434;6.788;2023-11-21T08:46:43;44.70;;;26.47;;
9102;SDS011;4587;51.434;6.788;2023-11-21T08:49:11;39.03;;;25.30;;
9102;SDS011;4587;51.434;6.788;2023-11-21T08:51:37;43.80;;;26.37;;
9102;SDS011;4587;51.434;6.788;2023-11-21T08:54:03;42.93;;;25.70;;
9102;SDS011;4587;51.434;6.788;2023-11-21T08:56:32;44.10;;;26.20;;
9102;SDS011;4587;51.434;6.788;2023-11-21T08:59:01;42.37;;;26.40;;
9102;SDS011;4587;51.434;6.788;2023-11-21T09:01:28;42.50;;;26.17;;
9102;SDS011;4587;51.434;6.788;2023-11-21T09:03:56;43.53;;;27.00;;
9102;SDS011;4587;51.434;6.788;2023-11-21T09:06:22;44.53;;;26.73;;
9102;SDS011;4587;51.434;6.788;2023-11-21T09:08:47;43.50;;;26.33;;
9102;SDS011;4587;51.434;6.788;2023-11-21T09:11:13;42.10;;;26.87;;
9102;SDS011;4587;51.434;6.788;2023-11-21T09:13:38;43.83;;;27.33;;
9102;SDS011;4587;51.434;6.788;2023-11-21T09:16:04;47.37;;;29.53;;
9102;SDS011;4587;51.434;6.788;2023-11-21T09:18:30;47.53;;;28.77;;
9102;SDS011;4587;51.434;6.788;2023-11-21T09:20:56;45.83;;;29.77;;
9102;SDS011;4587;51.434;6.788;2023-11-21T09:23:22;45.47;;;28.97;;
9102;SDS011;4587;51.434;6.788;2023-11-21T09:25:47;57.20;;;33.70;;
9102;SDS011;4587;51.434;6.788;2023-11-21T09:28:15;55.97;;;35.77;;
9102;SDS011;4587;51.434;6.788;2023-11-21T09:30:42;59.67;;;36.17;;
9102;SDS011;4587;51.434;6.788;2023-11-21T09:33:08;56.57;;;35.23;;
9102;SDS011;4587;51.434;6.788;2023-11-21T09:35:35;56.87;;;34.20;;
9102;SDS011;4587;51.434;6.788;2023-11-21T09:38:04;60.53;;;36.10;;
9102;SDS011;4587;51.434;6.788;2023-11-21T09:40:36;68.13;;;38.07;;
9102;SDS011;4587;51.434;6.788;2023-11-21T09:43:03;71.63;;;39.30;;
9102;SDS011;4587;51.434;6.788;2023-11-21T09:45:41;76.17;;;42.00;;
9102;SDS011;4587;51.434;6.788;2023-11-21T09:48:10;79.17;;;42.80;;
9102;SDS011;4587;51.434;6.788;2023-11-21T09:50:36;78.30;;;42.70;;
9102;SDS011;4587;51.434;6.788;2023-11-21T09:53:09;80.00;;;43.47;;
9102;SDS011;4587;51.434;6.788;2023-11-21T09:55:52;87.57;;;45.97;;
9102;SDS011;4587;51.434;6.788;2023-11-21T09:58:18;84.97;;;45.97;;
9102;SDS011;4587;51.434;6.788;2023-11-21T10:00:45;76.17;;;44.00;;
9102;SDS011;4587;51.434;6.788;2023-11-21T10:03:12;77.43;;;45.73;;
9102;SDS011;4587;51.434;6.788;2023-11-21T10:05:39;84.17;;;45.97;;
9102;SDS011;4587;51.434;6.788;2023-11-21T10:08:07;79.63;;;47.00;;
9102;SDS011;4587;51.434;6.788;2023-11-21T10:10:37;83.53;;;45.90;;
9102;SDS011;4587;51.434;6.788;2023-11-21T10:13:07;83.67;;;44.93;;
9102;SDS011;4587;51.434;6.788;2023-11-21T10:15:37;85.13;;;45.60;;
9102;SDS011;4587;51.434;6.788;2023-11-21T10:18:03;83.83;;;45.13;;
9102;SDS011;4587;51.434;6.788;2023-11-21T10:20:31;98.10;;;48.77;;
9102;SDS011;4587;51.434;6.788;2023-11-21T10:22:58;85.33;;;47.37;;
9102;SDS011;4587;51.434;6.788;2023-11-21T10:25:26;86.83;;;48.03;;
9102;SDS011;4587;51.434;6.788;2023-11-21T10:27:56;92.43;;;49.57;;
9102;SDS011;4587;51.434;6.788;2023-11-21T10:30:27;90.03;;;49.77;;
9102;SDS011;4587;51.434;6.788;2023-11-21T10:33:01;89.60;;;49.10;;
9102;SDS011;4587;51.434;6.788;2023-11-21T10:35:38;93.23;;;51.40;;
9102;SDS011;4587;51.434;6.788;2023-11-21T10:38:18;90.73;;;48.93;;
9102;SDS011;4587;51.434;6.788;2023-11-21T10:40:47;101.23;;;51.20;;
9102;SDS011;4587;51.434;6.788;2023-11-21T10:43:14;95.53;;;50.37;;
9102;SDS011;4587;51.434;6.788;2023-11-21T10:45:41;92.37;;;50.17;;
9102;SDS011;4587;51.434;6.788;2023-11-21T10:48:10;106.23;;;52.17;;
9102;SDS011;4587;51.434;6.788;2023-11-21T10:50:42;101.13;;;50.83;;
9102;SDS011;4587;51.434;6.788;2023-11-21T10:53:11;104.27;;;52.33;;
9102;SDS011;4587;51.434;6.788;2023-11-21T10:55:37;110.43;;;54.23;;
9102;SDS011;4587;51.434;6.788;2023-11-21T10:58:03;100.40;;;54.53;;
9102;SDS011;4587;51.434;6.788;2023-11-21T11:00:31;103.50;;;52.37;;
9102;SDS011;4587;51.434;6.788;2023-11-21T11:02:58;94.20;;;50.93;;
9102;SDS011;4587;51.434;6.788;2023-11-21T11:05:25;104.80;;;54.47;;
9102;SDS011;4587;51.434;6.788;2023-11-21T11:08:02;96.00;;;53.07;;
9102;SDS011;4587;51.434;6.788;2023-11-21T11:10:31;103.10;;;53.20;;
9102;SDS011;4587;51.434;6.788;2023-11-21T11:12:57;93.10;;;51.40;;
9102;SDS011;4587;51.434;6.788;2023-11-21T11:15:23;96.43;;;50.53;;
9102;SDS011;4587;51.434;6.788;2023-11-21T11:17:49;92.87;;;50.77;;
9102;SDS011;4587;51.434;6.788;2023-11-21T11:20:16;89.93;;;51.20;;
9102;SDS011;4587;51.434;6.788;2023-11-21T11:28:22;103.47;;;50.73;;
9102;SDS011;4587;51.434;6.788;2023-11-21T11:31:14;95.97;;;49.77;;
9102;SDS011;4587;51.434;6.788;2023-11-21T11:33:59;88.60;;;47.53;;
9102;SDS011;4587;51.434;6.788;2023-11-21T11:37:11;88.60;;;49.77;;
9102;SDS011;4587;51.434;6.788;2023-11-21T11:39:38;91.10;;;48.37;;
9102;SDS011;4587;51.434;6.788;2023-11-21T11:42:12;88.87;;;48.50;;
9102;SDS011;4587;51.434;6.788;2023-11-21T11:49:58;88.00;;;49.57;;
9102;SDS011;4587;51.434;6.788;2023-11-21T11:52:36;87.87;;;47.63;;
9102;SDS011;4587;51.434;6.788;2023-11-21T11:55:05;93.70;;;50.93;;
9102;SDS011;4587;51.434;6.788;2023-11-21T11:57:34;93.57;;;51.60;;
9102;SDS011;4587;51.434;6.788;2023-11-21T12:00:07;83.73;;;48.77;;
9102;SDS011;4587;51.434;6.788;2023-11-21T12:02:52;78.93;;;47.13;;
9102;SDS011;4587;51.434;6.788;2023-11-21T12:05:27;80.50;;;46.60;;
9102;SDS011;4587;51.434;6.788;2023-11-21T12:07:56;81.47;;;45.20;;
9102;SDS011;4587;51.434;6.788;2023-11-21T12:10:24;77.80;;;46.30;;
9102;SDS011;4587;51.434;6.788;2023-11-21T12:12:51;73.77;;;43.93;;
9102;SDS011;4587;51.434;6.788;2023-11-21T12:15:18;71.77;;;44.13;;
9102;SDS011;4587;51.434;6.788;2023-11-21T12:17:46;67.03;;;41.13;;
9102;SDS011;4587;51.434;6.788;2023-11-21T12:20:12;75.67;;;43.43;;
9102;SDS011;4587;51.434;6.788;2023-11-21T12:25:23;67.83;;;41.10;;
9102;SDS011;4587;51.434;6.788;2023-11-21T12:27:53;63.63;;;39.83;;
9102;SDS011;4587;51.434;6.788;2023-11-21T12:30:20;68.33;;;41.00;;
9102;SDS011;4587;51.434;6.788;2023-11-21T12:32:51;71.60;;;39.87;;
9102;SDS011;4587;51.434;6.788;2023-11-21T12:35:18;68.00;;;39.60;;
9102;SDS011;4587;51.434;6.788;2023-11-21T12:37:46;67.53;;;36.77;;
9102;SDS011;4587;51.434;6.788;2023-11-21T12:40:13;54.17;;;29.80;;
9102;SDS011;4587;51.434;6.788;2023-11-21T12:42:42;37.53;;;24.33;;
9102;SDS011;4587;51.434;6.788;2023-11-21T12:47:49;33.40;;;21.93;;
9102;SDS011;4587;51.434;6.788;2023-11-21T12:50:18;29.43;;;20.47;;
9102;SDS011;4587;51.434;6.788;2023-11-21T12:52:48;30.93;;;20.20;;
9102;SDS011;4587;51.434;6.788;2023-11-21T12:55:19;30.83;;;18.53;;
9102;SDS011;4587;51.434;6.788;2023-11-21T12:57:49;28.10;;;19.60;;
9102;SDS011;4587;51.434;6.788;2023-11-21T13:00:31;27.37;;;18.60;;
9102;SDS011;4587;51.434;6.788;2023-11-21T13:02:58;24.73;;;17.03;;
9102;SDS011;4587;51.434;6.788;2023-11-21T13:05:28;26.33;;;17.57;;
9102;SDS011;4587;51.434;6.788;2023-11-21T13:07:56;28.40;;;18.63;;
9102;SDS011;4587;51.434;6.788;2023-11-21T13:10:26;21.83;;;14.87;;
9102;SDS011;4587;51.434;6.788;2023-11-21T13:12:55;23.33;;;15.00;;
9102;SDS011;4587;51.434;6.788;2023-11-21T13:15:25;19.80;;;13.77;;
9102;SDS011;4587;51.434;6.788;2023-11-21T13:17:56;20.73;;;14.33;;
9102;SDS011;4587;51.434;6.788;2023-11-21T13:20:22;20.70;;;13.40;;
9102;SDS011;4587;51.434;6.788;2023-11-21T13:22:49;16.07;;;13.03;;
9102;SDS011;4587;51.434;6.788;2023-11-21T13:25:22;14.90;;;12.07;;
9102;SDS011;4587;51.434;6.788;2023-11-21T13:27:48;15.53;;;12.27;;
9102;SDS011;4587;51.434;6.788;2023-11-21T13:30:15;14.87;;;11.07;;
9102;SDS011;4587;51.434;6.788;2023-11-21T13:32:42;18.27;;;11.73;;
9102;SDS011;4587;51.434;6.788;2023-11-21T13:35:09;14.97;;;11.70;;
9102;SDS011;4587;51.434;6.788;2023-11-21T13:37:40;15.93;;;11.63;;
9102;SDS011;4587;51.434;6.788;2023-11-21T13:40:07;16.53;;;12.33;;
9102;SDS011;4587;51.434;6.788;2023-11-21T13:42:39;16.87;;;12.73;;
9102;SDS011;4587;51.434;6.788;2023-11-21T13:45:06;15.90;;;11.17;;
9102;SDS011;4587;51.434;6.788;2023-11-21T13:47:32;15.47;;;11.30;;
9102;SDS011;4587;51.434;6.788;2023-11-21T13:49:59;13.37;;;10.90;;
9102;SDS011;4587;51.434;6.788;2023-11-21T13:52:25;14.43;;;11.10;;
9102;SDS011;4587;51.434;6.788;2023-11-21T13:54:52;13.07;;;9.87;;
9102;SDS011;4587;51.434;6.788;2023-11-21T13:57:18;13.50;;;10.87;;
9102;SDS011;4587;51.434;6.788;2023-11-21T13:59:45;13.07;;;10.67;;
9102;SDS011;4587;51.434;6.788;2023-11-21T14:02:11;13.27;;;10.90;;
9102;SDS011;4587;51.434;6.788;2023-11-21T14:04:43;13.97;;;11.30;;
9102;SDS011;4587;51.434;6.788;2023-11-21T14:07:20;14.17;;;11.33;;
9102;SDS011;4587;51.434;6.788;2023-11-21T14:10:00;15.40;;;11.80;;
9102;SDS011;4587;51.434;6.788;2023-11-21T14:12:26;17.87;;;12.73;;
9102;SDS011;4587;51.434;6.788;2023-11-21T14:14:53;17.50;;;12.27;;
9102;SDS011;4587;51.434;6.788;2023-11-21T14:17:20;16.13;;;12.47;;
9102;SDS011;4587;51.434;6.788;2023-11-21T14:19:47;15.37;;;11.80;;
9102;SDS011;4587;51.434;6.788;2023-11-21T14:22:14;18.43;;;12.33;;
9102;SDS011;4587;51.434;6.788;2023-11-21T14:24:39;18.83;;;12.53;;
9102;SDS011;4587;51.434;6.788;2023-11-21T14:27:12;16.60;;;12.97;;
9102;SDS011;4587;51.434;6.788;2023-11-21T14:29:38;15.07;;;12.47;;
9102;SDS011;4587;51.434;6.788;2023-11-21T14:32:08;15.80;;;12.97;;
9102;SDS011;4587;51.434;6.788;2023-11-21T14:34:34;16.97;;;12.73;;
9102;SDS011;4587;51.434;6.788;2023-11-21T14:37:03;16.50;;;13.37;;
9102;SDS011;4587;51.434;6.788;2023-11-21T14:39:29;16.13;;;12.50;;
9102;SDS011;4587;51.434;6.788;2023-11-21T14:41:54;18.37;;;13.53;;
9102;SDS011;4587;51.434;6.788;2023-11-21T14:44:25;14.80;;;12.17;;
9102;SDS011;4587;51.434;6.788;2023-11-21T14:46:53;18.60;;;14.13;;
9102;SDS011;4587;51.434;6.788;2023-11-21T14:49:24;19.67;;;17.50;;
9102;SDS011;4587;51.434;6.788;2023-11-21T14:51:52;16.03;;;13.10;;
9102;SDS011;4587;51.434;6.788;2023-11-21T14:54:29;15.27;;;12.17;;
9102;SDS011;4587;51.434;6.788;2023-11-21T14:57:12;13.57;;;11.47;;
9102;SDS011;4587;51.434;6.788;2023-11-21T14:59:44;15.23;;;12.13;;
9102;SDS011;4587;51.434;6.788;2023-11-21T15:02:19;13.67;;;11.43;;
9102;SDS011;4587;51.434;6.788;2023-11-21T15:05:08;13.13;;;11.07;;
9102;SDS011;4587;51.434;6.788;2023-11-21T15:07:39;15.63;;;12.20;;
9102;SDS011;4587;51.434;6.788;2023-11-21T15:10:06;16.00;;;11.37;;